createdAt,value
2018-10-11T00:00:59.488Z,78.85
2018-10-11T00:10:59.329Z,77.49
2018-10-11T00:20:59.418Z,77.58
2018-10-11T00:30:59.482Z,79.56
2018-10-11T00:40:59.459Z,81.53
2018-10-11T00:50:59.446Z,82.55
2018-10-11T01:00:59.415Z,83.22
2018-10-11T01:10:59.660Z,83.95
2018-10-11T01:20:59.566Z,84.80
2018-10-11T01:30:59.644Z,85.89
2018-10-11T01:40:59.529Z,88.44
2018-10-11T01:50:59.497Z,88.41
2018-10-11T02:00:59.431Z,87.72
2018-10-11T02:10:59.474Z,87.32
2018-10-11T02:20:59.627Z,87.38
2018-10-11T02:31:00.138Z,87.89
2018-10-11T02:40:59.550Z,87.34
2018-10-11T02:50:59.521Z,88.03
2018-10-11T03:00:59.490Z,88.65
2018-10-11T03:10:59.509Z,88.71
2018-10-11T03:20:59.568Z,89.98
2018-10-11T03:30:59.567Z,90.23
2018-10-11T03:40:59.574Z,91.04
2018-10-11T03:50:59.899Z,91.16
2018-10-11T04:00:59.584Z,91.38
2018-10-11T04:10:59.481Z,91.40
2018-10-11T04:20:59.578Z,91.33
2018-10-11T04:30:59.447Z,91.44
2018-10-11T04:40:59.439Z,91.35
2018-10-11T04:50:59.466Z,91.34
2018-10-11T05:00:59.539Z,91.45
2018-10-11T05:10:59.561Z,91.55
2018-10-11T05:20:59.481Z,92.01
2018-10-11T05:30:59.520Z,91.99
2018-10-11T05:40:59.480Z,91.82
2018-10-11T05:50:59.677Z,91.30
2018-10-11T06:00:59.585Z,91.07
2018-10-11T06:10:59.623Z,87.53
2018-10-11T06:20:59.601Z,84.49
2018-10-11T06:31:00.172Z,84.43
2018-10-11T06:40:59.527Z,84.87
2018-10-11T06:50:59.563Z,71.28
2018-10-11T07:00:59.552Z,63.74
2018-10-11T07:10:59.546Z,63.98
2018-10-11T07:20:59.673Z,64.73
2018-10-11T07:30:59.931Z,65.33
2018-10-11T07:40:59.633Z,65.94
2018-10-11T07:50:59.594Z,65.75
2018-10-11T08:00:59.650Z,64.90
2018-10-11T08:10:59.692Z,64.94
2018-10-11T08:20:59.682Z,64.33
2018-10-11T08:30:59.749Z,62.86
2018-10-11T08:40:59.568Z,61.48
2018-10-11T08:50:59.676Z,60.29
2018-10-11T09:00:59.690Z,58.17
2018-10-11T09:11:00.000Z,57.57
2018-10-11T09:20:59.502Z,58.00
2018-10-11T09:31:00.224Z,57.94
2018-10-11T09:40:59.532Z,59.00
2018-10-11T09:51:00.243Z,58.89
2018-10-11T10:00:59.563Z,58.24
2018-10-11T10:10:59.502Z,56.61
2018-10-11T10:20:59.602Z,55.50
2018-10-11T10:30:59.697Z,55.20
2018-10-11T10:40:59.512Z,54.05
2018-10-11T10:50:59.569Z,53.82
2018-10-11T11:00:59.611Z,52.15
2018-10-11T11:10:59.593Z,49.82
2018-10-11T11:20:59.550Z,49.18
2018-10-11T11:30:59.650Z,48.27
2018-10-11T11:40:59.540Z,46.93
2018-10-11T11:50:59.628Z,48.26
2018-10-11T12:00:59.536Z,45.66
2018-10-11T12:10:59.664Z,45.17
2018-10-11T12:20:59.602Z,46.61
2018-10-11T12:30:59.629Z,46.60
2018-10-11T12:41:00.985Z,46.05
2018-10-11T12:50:59.704Z,44.38
2018-10-11T13:01:03.910Z,45.41
2018-10-11T13:10:59.936Z,45.87
2018-10-11T13:20:59.668Z,46.49
2018-10-11T13:30:59.576Z,47.53
2018-10-11T13:41:03.081Z,47.31
2018-10-11T13:51:00.007Z,47.89
2018-10-11T14:00:59.749Z,47.70
2018-10-11T14:10:59.540Z,47.93
2018-10-11T14:20:59.721Z,44.57
2018-10-11T14:30:59.729Z,45.72
2018-10-11T14:40:59.645Z,44.30
2018-10-11T14:50:59.769Z,43.97
2018-10-11T15:00:59.606Z,42.51
2018-10-11T15:10:59.696Z,43.17
2018-10-11T15:20:59.551Z,43.16
2018-10-11T15:30:59.537Z,42.45
2018-10-11T15:40:59.574Z,42.46
2018-10-11T15:50:59.728Z,43.76
2018-10-11T16:00:59.679Z,45.30
2018-10-11T16:10:59.843Z,45.96
2018-10-11T16:20:59.604Z,47.03
2018-10-11T16:30:59.684Z,49.81
2018-10-11T16:40:59.557Z,51.33
2018-10-11T16:50:59.842Z,52.52
2018-10-11T17:00:59.595Z,53.13
2018-10-11T17:10:59.584Z,53.51
2018-10-11T17:20:59.627Z,53.87
2018-10-11T17:30:59.610Z,55.41
2018-10-11T17:40:59.639Z,59.74
2018-10-11T17:50:59.801Z,63.23
2018-10-11T18:00:59.597Z,65.14
2018-10-11T18:10:59.657Z,66.67
2018-10-11T18:20:59.661Z,66.02
2018-10-11T18:30:59.648Z,65.68
2018-10-11T18:40:59.601Z,65.35
2018-10-11T18:50:59.652Z,63.41
2018-10-11T19:00:59.634Z,60.57
2018-10-11T19:11:00.271Z,59.30
2018-10-11T19:20:59.874Z,58.84
2018-10-11T19:30:59.765Z,57.60
2018-10-11T19:40:59.804Z,57.00
2018-10-11T19:50:59.689Z,56.43
2018-10-11T20:00:59.718Z,57.10
2018-10-11T20:10:59.653Z,57.13
2018-10-11T20:20:59.745Z,57.71
2018-10-11T20:30:59.657Z,57.81
2018-10-11T20:40:59.612Z,58.08
2018-10-11T20:50:59.567Z,58.23
2018-10-11T21:00:59.620Z,58.66
2018-10-11T21:10:59.602Z,59.26
2018-10-11T21:20:59.632Z,60.05
2018-10-11T21:30:59.661Z,60.35
2018-10-11T21:40:59.890Z,59.97
2018-10-11T21:50:59.706Z,58.21
2018-10-11T22:00:59.633Z,57.17
2018-10-11T22:10:59.707Z,57.04
2018-10-11T22:20:59.701Z,56.85
2018-10-11T22:30:59.675Z,57.56
2018-10-11T22:40:59.602Z,58.45
2018-10-11T22:50:59.680Z,59.06
2018-10-11T23:00:59.700Z,59.27
2018-10-11T23:10:59.834Z,60.15
2018-10-11T23:20:59.695Z,60.46
2018-10-11T23:30:59.642Z,61.05
2018-10-11T23:40:59.614Z,60.72
2018-10-11T23:51:00.116Z,61.88
